Time;durP1;ratioP1;P1;durP2;ratioP2;P2;SDS_P1;SDS_P2;PMS_P1;PMS_P2;Temp;Humidity;BMP_temperature;BMP_pressure;BME280_temperature;BME280_humidity;BME280_pressure;Samples;Min_cycle;Max_cycle;Signal;HPM_P1;HPM_P2
2022/05/23 00:01:43;;;;;;;4.32;4.03;;;;;;;19.21;68.57;98805.31;5071960;28;20200;-63
2022/05/23 00:04:11;;;;;;;6.75;3.60;;;;;;;19.42;68.46;98824.75;5071850;28;20199;-57
2022/05/23 00:06:38;;;;;;;6.75;3.53;;;;;;;19.45;68.50;98829.78;5071871;28;20283;-56
2022/05/23 00:09:05;;;;;;;5.53;4.22;;;;;;;19.42;68.60;98826.53;5071667;28;20255;-57
2022/05/23 00:11:33;;;;;;;3.95;3.63;;;;;;;19.28;69.03;98830.22;5071738;28;20582;-56
2022/05/23 00:14:00;;;;;;;4.00;3.60;;;;;;;19.28;69.22;98826.75;5071986;28;20283;-64
2022/05/23 00:16:30;;;;;;;3.95;3.65;;;;;;;19.26;69.31;98832.13;5077173;28;20697;-63
2022/05/23 00:18:58;;;;;;;5.40;3.85;;;;;;;19.21;69.68;98832.47;5071309;28;20202;-63
2022/05/23 00:21:27;;;;;;;4.30;3.90;;;;;;;19.19;69.55;98833.53;5071485;28;20196;-61
2022/05/23 00:23:54;;;;;;;4.60;3.88;;;;;;;19.19;69.73;98830.91;5070641;28;20204;-62
2022/05/23 00:26:23;;;;;;;4.97;4.47;;;;;;;19.17;69.65;98832.81;5071594;28;20699;-61
2022/05/23 00:28:50;;;;;;;4.82;4.15;;;;;;;19.04;69.81;98803.13;5071445;28;20228;-61
2022/05/23 00:31:17;;;;;;;5.63;4.13;;;;;;;19.11;70.25;98820.97;5071471;28;20204;-62
2022/05/23 00:36:32;;;;;;;4.35;4.13;;;;;;;18.99;71.41;98821.03;5071339;28;20696;-63
2022/05/23 00:38:59;;;;;;;4.78;4.38;;;;;;;19.00;71.23;98817.44;5071512;28;20199;-63
2022/05/23 00:44:17;;;;;;;7.53;4.47;;;;;;;18.97;71.60;98818.50;5070938;28;20203;-57
2022/05/23 00:46:54;;;;;;;5.18;4.68;;;;;;;18.94;72.09;98817.91;5070929;28;20196;-57
2022/05/23 00:49:24;;;;;;;4.60;4.30;;;;;;;18.84;72.56;98818.59;5070938;28;20223;-57
2022/05/23 00:51:54;;;;;;;7.30;4.60;;;;;;;18.78;72.83;98813.78;5070844;28;20200;-58
2022/05/23 00:54:23;;;;;;;4.85;4.45;;;;;;;18.77;72.84;98814.72;5070606;28;20196;-57
2022/05/23 00:56:53;;;;;;;4.95;4.55;;;;;;;18.62;72.68;98800.09;5070995;28;20564;-57
2022/05/23 00:59:27;;;;;;;5.07;4.53;;;;;;;18.70;72.80;98815.28;5070588;28;20218;-56
2022/05/23 01:01:54;;;;;;;5.13;4.72;;;;;;;18.60;73.00;98815.13;5070971;28;20196;-57
2022/05/23 01:04:21;;;;;;;4.77;4.47;;;;;;;18.63;73.06;98808.78;5070695;28;20283;-56
2022/05/23 01:06:48;;;;;;;4.60;4.30;;;;;;;18.63;73.06;98814.88;5070682;28;20230;-57
2022/05/23 01:09:16;;;;;;;5.10;4.75;;;;;;;18.60;73.06;98809.88;5070468;28;20220;-57
2022/05/23 01:11:43;;;;;;;4.67;4.37;;;;;;;18.64;72.90;98802.59;5070556;28;20291;-56
2022/05/23 01:14:10;;;;;;;6.75;4.60;;;;;;;18.61;73.09;98802.84;5070766;28;20249;-56
2022/05/23 01:16:39;;;;;;;6.03;4.83;;;;;;;18.58;73.35;98800.41;5070502;28;20206;-57
2022/05/23 01:19:06;;;;;;;4.90;4.50;;;;;;;18.62;73.16;98797.47;5070530;28;20606;-65
2022/05/23 01:21:46;;;;;;;5.17;4.77;;;;;;;18.59;73.56;98787.16;5070429;28;20287;-66
2022/05/23 01:24:22;;;;;;;5.00;4.63;;;;;;;18.62;73.45;98797.47;5070162;28;20286;-58
2022/05/23 01:26:51;;;;;;;5.10;4.70;;;;;;;18.56;74.24;98799.66;5070542;28;20282;-58
2022/05/23 01:29:18;;;;;;;5.47;5.03;;;;;;;18.39;74.14;98774.63;5070344;28;20223;-58
2022/05/23 01:31:45;;;;;;;5.20;4.90;;;;;;;18.60;73.96;98807.25;5070518;28;20295;-58
2022/05/23 01:34:12;;;;;;;7.33;5.23;;;;;;;18.54;74.45;98798.91;5069947;28;20200;-58
2022/05/23 01:36:39;;;;;;;5.33;4.93;;;;;;;18.52;74.96;98802.50;5070197;28;20202;-58
2022/05/23 01:39:06;;;;;;;6.20;5.07;;;;;;;18.57;74.36;98803.97;5070502;28;20642;-65
2022/05/23 01:41:33;;;;;;;6.20;5.30;;;;;;;18.58;74.17;98803.88;5070118;28;20206;-66
2022/05/23 01:44:01;;;;;;;5.80;5.40;;;;;;;18.53;75.08;98800.72;5070173;28;20191;-66
2022/05/23 01:46:28;;;;;;;5.90;5.30;;;;;;;18.60;74.32;98804.63;5069993;28;20227;-66
2022/05/23 01:48:55;;;;;;;5.50;4.90;;;;;;;18.69;73.93;98798.69;5070021;28;20306;-65
2022/05/23 01:51:22;;;;;;;5.50;5.00;;;;;;;18.70;73.90;98800.38;5069761;28;20691;-64
2022/05/23 01:53:49;;;;;;;5.25;4.78;;;;;;;18.58;73.64;98793.38;5070400;28;20196;-63
2022/05/23 01:56:16;;;;;;;5.40;5.00;;;;;;;18.68;73.64;98807.50;5070043;28;20681;-64
2022/05/23 02:01:29;;;;;;;6.00;4.93;;;;;;;18.48;74.70;98803.69;5069959;28;20190;-57
2022/05/23 02:03:56;;;;;;;5.53;5.13;;;;;;;18.58;74.69;98803.03;5069831;28;20192;-56
2022/05/23 02:06:23;;;;;;;5.20;4.90;;;;;;;18.53;74.38;98798.06;5069772;28;20202;-57
2022/05/23 02:08:50;;;;;;;5.37;5.00;;;;;;;18.50;74.48;98796.53;5070010;28;20788;-57
2022/05/23 02:11:16;;;;;;;5.30;4.90;;;;;;;18.54;74.38;98794.50;5069845;28;20200;-57
2022/05/23 02:13:45;;;;;;;5.50;5.00;;;;;;;18.52;74.52;98793.78;5069830;28;20211;-56
2022/05/23 02:16:12;;;;;;;5.75;5.28;;;;;;;18.58;74.47;98796.00;5069607;28;20261;-57
2022/05/23 02:18:41;;;;;;;4.97;4.57;;;;;;;18.42;74.94;98779.63;5070107;28;20605;-57
2022/05/23 02:21:08;;;;;;;5.33;4.90;;;;;;;18.42;75.40;98784.88;5069782;28;20202;-64
2022/05/23 02:23:36;;;;;;;5.33;4.93;;;;;;;18.39;76.01;98785.13;5069928;28;20526;-65
2022/05/23 02:26:04;;;;;;;5.53;5.13;;;;;;;18.34;76.03;98781.97;5069881;28;20200;-61
2022/05/23 02:28:31;;;;;;;6.83;5.13;;;;;;;18.33;76.43;98788.19;5069748;28;20199;-63
2022/05/23 02:30:58;;;;;;;5.80;5.40;;;;;;;18.29;76.57;98787.53;5069635;28;20196;-63
2022/05/23 02:33:25;;;;;;;5.83;5.10;;;;;;;18.31;76.83;98785.66;5069397;28;20206;-64
2022/05/23 02:35:54;;;;;;;6.43;5.80;;;;;;;18.13;77.09;98764.19;5069837;28;20192;-65
2022/05/23 02:38:21;;;;;;;6.13;5.70;;;;;;;18.08;77.10;98768.91;5069532;28;20196;-65
2022/05/23 02:40:48;;;;;;;6.10;5.60;;;;;;;18.13;77.94;98793.06;5069526;28;20196;-65
2022/05/23 02:43:15;;;;;;;6.50;6.10;;;;;;;18.08;78.02;98768.91;5069575;28;20279;-65
2022/05/23 02:45:43;;;;;;;6.10;5.57;;;;;;;18.21;76.98;98781.19;5069985;28;20262;-63
2022/05/23 02:48:10;;;;;;;7.00;5.90;;;;;;;18.19;77.14;98785.69;5073491;28;20196;-63
2022/05/23 02:50:37;;;;;;;6.13;5.73;;;;;;;18.24;76.54;98781.81;5075622;28;20606;-63
2022/05/23 02:53:06;;;;;;;6.87;6.27;;;;;;;18.31;76.36;98783.03;5092131;28;20199;-56
2022/05/23 02:55:33;;;;;;;6.47;5.90;;;;;;;18.32;76.31;98781.25;5091582;28;20275;-56
2022/05/23 02:58:00;;;;;;;6.43;5.80;;;;;;;18.28;76.22;98783.28;5091946;28;20191;-54
2022/05/23 03:00:28;;;;;;;7.90;6.33;;;;;;;18.19;75.87;98764.69;5091870;28;20286;-62
2022/05/23 03:03:03;;;;;;;6.43;5.90;;;;;;;18.43;76.12;98794.44;5087100;28;20221;-62
2022/05/23 03:05:30;;;;;;;6.30;5.90;;;;;;;18.43;77.09;98789.19;5091961;28;20298;-61
2022/05/23 03:07:57;;;;;;;6.40;5.80;;;;;;;18.53;76.00;98784.94;5092145;28;20624;-60
2022/05/23 03:10:26;;;;;;;8.07;6.70;;;;;;;18.44;74.34;98772.47;5092097;28;20231;-62
2022/05/23 03:12:53;;;;;;;6.50;5.80;;;;;;;18.65;73.64;98788.50;5092137;28;20261;-61
2022/05/23 03:15:21;;;;;;;5.93;5.43;;;;;;;18.71;72.80;98795.94;5092002;28;20223;-61
2022/05/23 03:17:48;;;;;;;8.27;6.05;;;;;;;18.70;72.59;98803.00;5091709;28;20248;-61
2022/05/23 03:20:15;;;;;;;6.67;6.07;;;;;;;18.76;72.60;98772.78;5091951;28;20302;-60
2022/05/23 03:28:13;;;;;;;6.60;6.00;;;;;;;19.01;70.33;98801.56;5091953;28;20222;-61
2022/05/23 03:30:40;;;;;;;6.10;5.70;;;;;;;19.04;70.28;98800.50;5086409;28;20233;-61
2022/05/23 03:33:08;;;;;;;8.05;5.30;;;;;;;19.01;70.05;98798.94;5090860;28;20257;-60
2022/05/23 03:35:36;;;;;;;6.88;5.90;;;;;;;19.00;70.27;98796.41;5090467;28;20222;-61
2022/05/23 03:38:03;;;;;;;6.38;5.78;;;;;;;19.02;70.16;98802.41;5090561;28;20223;-61
2022/05/23 03:40:32;;;;;;;7.15;6.55;;;;;;;19.18;69.52;98810.81;5089519;28;20223;-61
2022/05/23 03:43:00;;;;;;;7.30;5.50;;;;;;;19.32;68.70;98810.59;5090410;28;20311;-61
2022/05/23 03:45:28;;;;;;;6.30;5.82;;;;;;;19.46;67.84;98810.41;5087657;28;20234;-64
2022/05/23 03:47:56;;;;;;;6.38;5.97;;;;;;;19.63;67.09;98808.31;5089244;28;20215;-62
2022/05/23 03:50:24;;;;;;;5.95;5.45;;;;;;;20.11;65.34;98808.91;5084868;28;20227;-62
2022/05/23 03:52:52;;;;;;;6.10;5.70;;;;;;;20.74;62.07;98820.56;5086601;28;20590;-62
2022/05/23 03:55:19;;;;;;;7.65;6.18;;;;;;;21.35;59.55;98811.06;5087235;28;20236;-61
2022/05/23 03:57:47;;;;;;;6.30;5.80;;;;;;;21.79;57.61;98814.34;5086167;28;20229;-60
2022/05/23 04:00:15;;;;;;;5.88;5.30;;;;;;;21.80;56.97;98819.50;5089386;28;20680;-63
2022/05/23 04:02:44;;;;;;;5.72;5.32;;;;;;;22.52;55.13;98819.38;5089143;28;20216;-62
2022/05/23 04:05:12;;;;;;;7.57;5.90;;;;;;;23.63;51.32;98817.16;5089570;28;20301;-62
2022/05/23 04:07:40;;;;;;;6.07;5.53;;;;;;;24.81;48.33;98814.66;5090119;28;20734;-61
2022/05/23 04:10:09;;;;;;;6.80;5.47;;;;;;;25.07;46.98;98817.41;5089740;28;20219;-61
2022/05/23 04:12:36;;;;;;;7.38;5.55;;;;;;;25.85;45.41;98811.16;5090256;28;20626;-61
2022/05/23 04:15:05;;;;;;;5.75;5.22;;;;;;;26.51;43.45;98818.47;5085090;28;20703;-60
2022/05/23 04:17:32;;;;;;;6.88;6.18;;;;;;;26.81;42.91;98824.19;5089867;28;20219;-62
2022/05/23 04:19:59;;;;;;;6.13;5.57;;;;;;;27.38;41.52;98815.25;5089422;28;20231;-57
2022/05/23 04:22:26;;;;;;;8.60;5.20;;;;;;;28.80;39.57;98826.84;5089726;28;20219;-59
2022/05/23 04:24:53;;;;;;;5.32;5.03;;;;;;;30.36;36.74;98813.69;5090119;28;20730;-60
2022/05/23 04:27:20;;;;;;;9.48;5.90;;;;;;;30.98;35.12;98827.38;5088236;28;20207;-59
2022/05/23 04:29:47;;;;;;;5.63;5.13;;;;;;;31.66;34.44;98824.13;5083491;27;20223;-59
2022/05/23 04:35:15;;;;;;;8.35;5.38;;;;;;;33.32;31.34;98826.47;5090575;28;20241;-59
2022/05/23 04:37:44;;;;;;;5.70;5.07;;;;;;;33.80;30.43;98824.38;5087628;28;20230;-62
2022/05/23 04:40:12;;;;;;;5.10;4.70;;;;;;;34.15;30.23;98816.84;5079966;28;20711;-63
2022/05/23 04:42:39;;;;;;;6.95;4.90;;;;;;;34.42;29.57;98812.22;5088073;28;20231;-64
2022/05/23 04:45:07;;;;;;;6.95;4.93;;;;;;;34.17;29.41;98813.94;5085189;28;20237;-54
2022/05/23 04:50:21;;;;;;;7.53;4.38;;;;;;;32.80;30.89;98805.69;5084512;28;20227;-55
2022/05/23 04:52:48;;;;;;;5.40;4.85;;;;;;;30.93;33.35;98801.16;5070147;28;20230;-55
2022/05/23 04:55:16;;;;;;;6.10;5.63;;;;;;;29.54;35.71;98805.72;5069713;28;20273;-56
2022/05/23 04:57:43;;;;;;;8.13;5.47;;;;;;;28.37;37.55;98806.03;5086143;28;20209;-56
2022/05/23 05:00:13;;;;;;;5.00;4.70;;;;;;;27.64;39.02;98806.28;5088204;28;20191;-55
2022/05/23 05:02:42;;;;;;;5.50;5.20;;;;;;;26.82;40.65;98778.75;5089732;28;20195;-55
2022/05/23 05:05:09;;;;;;;5.75;5.35;;;;;;;25.95;42.54;98780.00;5089366;28;20293;-56
2022/05/23 05:07:36;;;;;;;6.00;5.25;;;;;;;25.37;44.13;98784.28;5089473;28;20199;-55
2022/05/23 05:10:04;;;;;;;5.88;5.35;;;;;;;25.08;45.01;98784.53;5089170;28;20211;-55
2022/05/23 05:12:31;;;;;;;5.82;5.40;;;;;;;24.77;45.67;98787.56;5090488;28;20191;-56
2022/05/23 05:14:58;;;;;;;5.40;4.97;;;;;;;24.63;46.05;98797.88;5090563;28;20202;-56
2022/05/23 05:17:25;;;;;;;7.65;5.13;;;;;;;25.68;44.55;98785.50;5090561;28;20723;-63
2022/05/23 05:19:54;;;;;;;5.22;4.82;;;;;;;26.83;41.95;98787.59;5090642;28;20671;-65
2022/05/23 05:22:21;;;;;;;9.50;5.10;;;;;;;27.28;40.52;98795.94;5089599;28;20210;-67
2022/05/23 05:24:48;;;;;;;7.40;5.00;;;;;;;28.19;39.36;98800.94;5089844;28;20191;-65
2022/05/23 05:27:15;;;;;;;4.72;4.43;;;;;;;29.44;36.64;98797.16;5089647;28;20206;-65
2022/05/23 05:29:42;;;;;;;7.85;4.25;;;;;;;31.14;33.90;98802.22;5090995;28;20280;-65
2022/05/23 05:32:15;;;;;;;7.18;4.38;;;;;;;32.19;32.65;98807.50;5090412;28;20713;-65
2022/05/23 05:34:47;;;;;;;5.07;4.57;;;;;;;33.72;30.58;98813.81;5090314;28;20195;-65
2022/05/23 05:37:20;;;;;;;3.97;3.78;;;;;;;33.99;28.80;98808.38;5090266;28;20209;-66
2022/05/23 05:39:50;;;;;;;5.95;4.15;;;;;;;34.55;29.16;98809.44;5090374;28;20195;-65
2022/05/23 05:42:21;;;;;;;7.35;3.42;;;;;;;35.29;27.95;98810.69;5088588;28;20192;-66
2022/05/23 05:44:53;;;;;;;3.97;3.42;;;;;;;35.72;26.87;98813.41;5088691;28;20231;-66
2022/05/23 05:47:21;;;;;;;3.40;3.20;;;;;;;36.23;26.55;98810.38;5089356;28;20200;-67
2022/05/23 05:49:53;;;;;;;5.18;3.90;;;;;;;36.76;25.67;98809.75;5090282;28;20771;-65
2022/05/23 05:52:25;;;;;;;3.90;3.70;;;;;;;36.28;26.39;98799.72;5090077;28;20202;-63
2022/05/23 05:54:53;;;;;;;3.72;3.47;;;;;;;36.47;26.24;98808.63;5090071;28;20187;-66
2022/05/23 05:57:22;;;;;;;4.47;4.07;;;;;;;37.15;25.62;98797.47;5089678;28;20191;-58
2022/05/23 05:59:49;;;;;;;4.35;3.90;;;;;;;37.24;25.39;98806.13;5090231;28;20244;-58
2022/05/23 06:02:16;;;;;;;6.93;3.65;;;;;;;37.11;25.09;98798.19;5089909;28;20202;-58
2022/05/23 06:04:44;;;;;;;3.95;3.45;;;;;;;36.54;26.09;98798.56;5090066;28;20199;-58
2022/05/23 06:12:49;;;;;;;3.63;3.33;;;;;;;35.82;26.20;98786.72;5080693;28;20210;-59
2022/05/23 06:15:16;;;;;;;5.47;3.55;;;;;;;36.11;26.40;98784.34;5088010;28;20203;-58
2022/05/23 06:17:44;;;;;;;5.43;3.90;;;;;;;35.56;27.00;98786.97;5089922;28;20201;-59
2022/05/23 06:20:13;;;;;;;4.68;3.70;;;;;;;36.00;26.56;98800.25;5089935;28;20663;-66
2022/05/23 06:22:40;;;;;;;4.05;3.72;;;;;;;36.21;25.82;98792.75;5093942;28;20241;-64
2022/05/23 06:25:10;;;;;;;5.47;3.60;;;;;;;36.27;25.71;98789.16;5094050;28;20530;-65
2022/05/23 06:27:37;;;;;;;4.35;3.78;;;;;;;36.16;25.91;98795.28;5094310;28;20679;-65
2022/05/23 06:30:06;;;;;;;7.80;4.03;;;;;;;35.30;26.87;98790.75;5093025;28;20225;-65
2022/05/23 06:32:33;;;;;;;3.95;3.47;;;;;;;35.05;26.90;98801.50;5092331;28;20286;-65
2022/05/23 06:35:00;;;;;;;4.55;3.70;;;;;;;35.45;26.33;98787.69;5092701;28;20298;-64
2022/05/23 06:37:27;;;;;;;6.15;3.45;;;;;;;35.22;26.96;98781.00;5093697;28;20209;-65
2022/05/23 06:39:54;;;;;;;3.38;3.10;;;;;;;35.35;26.43;98769.31;5093579;28;20583;-65
2022/05/23 06:42:22;;;;;;;4.88;3.50;;;;;;;34.97;26.10;98779.38;5093424;28;20202;-65
2022/05/23 06:44:49;;;;;;;5.80;3.60;;;;;;;34.81;26.90;98778.00;5093387;28;20227;-64
2022/05/23 06:47:16;;;;;;;6.70;5.93;;;;;;;34.60;26.95;98773.75;5093214;28;20199;-66
2022/05/23 06:49:43;;;;;;;5.50;3.70;;;;;;;34.78;26.86;98778.44;5093946;28;20646;-65
2022/05/23 06:52:10;;;;;;;4.03;3.40;;;;;;;34.23;27.03;98753.81;5093747;28;20717;-57
2022/05/23 06:54:37;;;;;;;3.78;3.53;;;;;;;34.20;26.86;98779.31;5093468;28;20203;-64
2022/05/23 06:57:04;;;;;;;3.58;3.35;;;;;;;33.99;26.85;98760.75;5092549;28;20195;-64
2022/05/23 06:59:33;;;;;;;6.57;4.05;;;;;;;33.86;27.11;98780.44;5093123;28;20191;-65
2022/05/23 07:02:01;;;;;;;5.10;3.55;;;;;;;33.44;27.68;98776.38;5093252;28;20201;-64
2022/05/23 07:12:19;;;;;;;4.90;3.60;;;;;;;33.68;27.40;98776.75;5093231;28;20195;-65
2022/05/23 07:12:44;;;;;;;3.85;3.40;;;;;;;33.71;26.88;98760.19;5093380;28;20275;-65
2022/05/23 07:15:13;;;;;;;3.88;3.40;;;;;;;33.56;26.44;98776.56;5093398;28;20659;-64
2022/05/23 07:17:40;;;;;;;6.20;3.28;;;;;;;33.91;25.61;98766.38;5092860;28;20199;-65
2022/05/23 07:20:08;;;;;;;3.58;3.38;;;;;;;34.24;26.38;98772.47;5093035;28;20195;-65
2022/05/23 07:22:35;;;;;;;7.75;3.67;;;;;;;34.62;25.56;98768.97;5092637;28;20766;-66
2022/05/23 07:25:02;;;;;;;6.25;3.40;;;;;;;34.70;25.62;98767.88;5092879;28;20199;-66
2022/05/23 07:27:30;;;;;;;3.70;3.40;;;;;;;34.90;25.61;98776.69;5092808;28;20206;-66
2022/05/23 07:29:57;;;;;;;5.47;3.30;;;;;;;35.39;25.07;98777.78;5092673;28;20205;-57
2022/05/23 07:32:26;;;;;;;6.88;3.38;;;;;;;35.30;25.43;98761.91;5092071;28;20286;-57
2022/05/23 07:34:53;;;;;;;4.00;3.05;;;;;;;35.50;24.86;98777.06;5092813;28;20195;-59
2022/05/23 07:37:20;;;;;;;3.60;3.20;;;;;;;35.78;25.04;98788.22;5092352;28;20683;-59
2022/05/23 07:39:47;;;;;;;3.67;3.03;;;;;;;36.03;24.14;98786.28;5093008;28;20195;-58
2022/05/23 07:42:14;;;;;;;3.28;2.97;;;;;;;35.78;23.75;98784.72;5092779;28;20202;-58
2022/05/23 07:44:41;;;;;;;3.22;2.88;;;;;;;36.22;23.32;98778.22;5092259;28;20231;-66
2022/05/23 07:47:08;;;;;;;3.08;2.70;;;;;;;36.55;23.00;98772.38;5091248;28;20294;-65
2022/05/23 07:49:37;;;;;;;9.90;3.92;;;;;;;37.02;22.29;98781.47;5070606;28;20224;-65
2022/05/23 07:52:04;;;;;;;3.58;3.00;;;;;;;37.41;21.93;98780.00;5070334;28;20228;-65
2022/05/23 08:02:45;;;;;;;6.07;5.57;;;;;;;38.64;20.99;98779.69;5070510;28;20271;-66
2022/05/23 08:05:13;;;;;;;4.32;3.20;;;;;;;38.65;20.74;98786.78;5078526;28;20662;-66
2022/05/23 08:07:40;;;;;;;2.85;2.63;;;;;;;38.75;20.53;98776.09;5091101;28;20213;-66
2022/05/23 08:10:08;;;;;;;3.70;2.67;;;;;;;38.72;20.94;98765.72;5091052;28;20705;-65
2022/05/23 08:12:35;;;;;;;7.03;3.13;;;;;;;38.65;21.15;98756.09;5090951;28;20689;-66
2022/05/23 08:15:02;;;;;;;3.45;2.70;;;;;;;38.51;21.20;98756.38;5091057;28;20286;-67
2022/05/23 08:17:29;;;;;;;6.07;2.53;;;;;;;38.71;21.08;98758.69;5090701;28;20203;-66
2022/05/23 08:19:56;;;;;;;2.75;2.55;;;;;;;38.85;21.24;98762.72;5090880;28;20205;-66
2022/05/23 08:22:26;;;;;;;4.88;2.47;;;;;;;38.43;20.27;98756.78;5090746;28;20199;-65
2022/05/23 08:24:53;;;;;;;2.70;2.50;;;;;;;37.76;21.32;98761.88;5090822;28;20277;-64
2022/05/23 08:27:21;;;;;;;4.07;2.53;;;;;;;37.52;21.56;98751.28;5090491;28;20278;-65
2022/05/23 08:29:48;;;;;;;6.18;2.70;;;;;;;37.24;22.01;98747.41;5091006;28;20202;-63
2022/05/23 08:32:16;;;;;;;2.30;2.20;;;;;;;36.83;22.26;98750.13;5090578;28;20215;-63
2022/05/23 08:34:43;;;;;;;2.65;2.45;;;;;;;36.57;22.28;98751.34;5090573;28;20293;-64
2022/05/23 08:37:10;;;;;;;3.33;2.65;;;;;;;35.96;22.56;98750.44;5090586;28;20195;-63
2022/05/23 08:39:39;;;;;;;3.67;2.50;;;;;;;35.71;22.22;98749.63;5090462;28;20196;-63
2022/05/23 08:42:12;;;;;;;4.07;2.63;;;;;;;35.26;22.06;98743.66;5090832;28;20567;-63
2022/05/23 08:44:47;;;;;;;7.03;2.40;;;;;;;35.12;22.04;98748.31;5039470;28;1423889;-63
2022/05/23 08:47:22;;;;;;;2.70;2.20;;;;;;;34.72;22.24;98736.97;5091446;28;20323;-64
2022/05/23 08:50:05;;;;;;;3.65;2.10;;;;;;;34.29;22.90;98736.00;5091561;28;20263;-63
2022/05/23 08:52:35;;;;;;;2.55;1.90;;;;;;;33.94;22.94;98722.03;5091138;28;20188;-66
2022/05/23 08:55:08;;;;;;;5.95;2.40;;;;;;;33.79;23.13;98725.00;5091386;28;20667;-64
2022/05/23 08:57:40;;;;;;;5.47;2.75;;;;;;;33.91;24.18;98717.06;5088084;28;20203;-63
2022/05/23 09:00:10;;;;;;;4.70;3.22;;;;;;;33.76;24.23;98723.53;5087931;28;20249;-63
2022/05/23 09:02:43;;;;;;;7.50;2.30;;;;;;;33.50;24.07;98707.44;5090250;28;20238;-63
2022/05/23 09:05:15;;;;;;;6.45;2.63;;;;;;;33.23;24.13;98720.13;5090862;28;20218;-63
2022/05/23 09:07:47;;;;;;;6.25;2.50;;;;;;;33.24;24.30;98710.19;5090648;28;20191;-63
2022/05/23 09:10:22;;;;;;;3.03;2.75;;;;;;;33.06;24.31;98716.19;5087629;28;20191;-64
2022/05/23 09:12:53;;;;;;;7.63;3.08;;;;;;;32.87;24.59;98723.19;5090483;28;20195;-63
2022/05/23 09:15:20;;;;;;;4.32;2.80;;;;;;;32.17;26.02;98721.75;5090501;28;20603;-62
2022/05/23 09:17:52;;;;;;;8.43;3.22;;;;;;;32.07;26.31;98716.75;5090864;28;20600;-63
2022/05/23 09:20:28;;;;;;;3.08;2.88;;;;;;;32.11;25.51;98712.66;5088500;28;20213;-63
2022/05/23 09:23:00;;;;;;;7.03;2.88;;;;;;;31.74;25.05;98697.84;5087911;28;20202;-64
2022/05/23 09:25:28;;;;;;;3.75;2.28;;;;;;;31.82;25.88;98699.53;5090149;28;20195;-63
2022/05/23 09:28:19;;;;;;;3.55;2.30;;;;;;;31.53;26.03;98703.28;5090184;28;20195;-64
2022/05/23 09:30:56;;;;;;;5.30;2.50;;;;;;;31.63;25.82;98697.53;5087586;28;20215;-64
2022/05/23 09:33:24;;;;;;;2.50;2.30;;;;;;;31.96;25.61;98701.22;5088006;28;20191;-63
2022/05/23 09:35:54;;;;;;;6.85;2.80;;;;;;;32.06;25.97;98700.84;5089549;28;20687;-63
2022/05/23 09:38:25;;;;;;;2.88;2.55;;;;;;;32.01;26.71;98682.69;5089784;28;20195;-63
2022/05/23 09:40:55;;;;;;;4.85;3.25;;;;;;;31.98;28.13;98699.19;5090163;28;20191;-63
2022/05/23 09:49:05;;;;;;;2.50;2.30;;;;;;;32.65;25.59;98689.44;5088483;28;20199;-63
2022/05/23 09:51:32;;;;;;;4.35;2.17;;;;;;;32.65;24.87;98687.59;5088386;28;20222;-62
2022/05/23 09:54:03;;;;;;;5.88;2.55;;;;;;;32.80;24.71;98684.75;5088434;28;20198;-62
2022/05/23 09:56:40;;;;;;;2.25;2.03;;;;;;;33.23;24.26;98692.34;5088294;28;20598;-63
2022/05/23 09:59:10;;;;;;;3.42;2.22;;;;;;;33.32;24.06;98686.56;5087629;28;20202;-63
2022/05/23 10:01:38;;;;;;;3.80;1.77;;;;;;;33.32;24.67;98685.75;5087571;28;20260;-62
2022/05/23 10:04:14;;;;;;;3.90;2.20;;;;;;;33.01;25.12;98681.84;5088597;28;20570;-64
2022/05/23 10:06:48;;;;;;;3.65;2.53;;;;;;;32.60;25.60;98667.75;5088041;28;20226;-64
2022/05/23 10:09:25;;;;;;;4.35;2.03;;;;;;;32.60;25.91;98668.59;5088134;28;20864;-62
2022/05/23 10:11:57;;;;;;;10.85;2.65;;;;;;;32.59;25.48;98669.63;5088076;28;20214;-63
2022/05/23 10:14:26;;;;;;;2.88;2.38;;;;;;;32.56;25.51;98669.19;5086959;28;20195;-63
2022/05/23 10:16:56;;;;;;;3.65;2.63;;;;;;;32.60;25.19;98665.06;5089674;28;20219;-62
2022/05/23 10:19:32;;;;;;;2.45;2.25;;;;;;;32.54;25.79;98668.56;5087100;28;20219;-57
2022/05/23 10:22:09;;;;;;;3.97;2.20;;;;;;;32.35;25.33;98657.59;5088514;28;20252;-57
2022/05/23 10:24:39;;;;;;;2.72;2.40;;;;;;;32.41;25.81;98667.50;5087259;28;20659;-58
2022/05/23 10:27:13;;;;;;;3.00;2.50;;;;;;;32.63;26.39;98660.09;5087949;28;20195;-58
2022/05/23 10:29:53;;;;;;;3.40;2.15;;;;;;;32.66;26.18;98642.72;5088021;28;20187;-58
2022/05/23 10:32:29;;;;;;;2.78;2.60;;;;;;;32.71;25.81;98651.03;5088057;28;20214;-58
2022/05/23 10:35:06;;;;;;;3.97;2.17;;;;;;;32.38;25.70;98654.50;5089530;28;20285;-57
2022/05/23 10:37:36;;;;;;;2.50;2.30;;;;;;;32.02;26.26;98652.13;5087917;28;20682;-58
2022/05/23 10:42:58;;;;;;;2.50;2.30;;;;;;;31.60;27.01;98629.03;5089166;28;20729;-64
2022/05/23 10:45:32;;;;;;;3.15;2.28;;;;;;;31.80;27.39;98641.72;5089157;28;20231;-63
2022/05/23 10:48:35;;;;;;;3.33;2.53;;;;;;;31.96;27.08;98658.28;5089848;28;20588;-64
2022/05/23 10:51:11;;;;;;;3.40;2.67;;;;;;;32.03;26.83;98651.09;5089410;28;20226;-63
2022/05/23 10:53:50;;;;;;;3.97;2.40;;;;;;;32.01;27.09;98652.31;5089680;28;20594;-64
2022/05/23 10:56:31;;;;;;;3.22;3.00;;;;;;;31.90;27.79;98658.28;5089563;28;20195;-56
2022/05/23 10:59:07;;;;;;;3.30;2.67;;;;;;;31.58;27.24;98647.19;5089583;28;20263;-57
2022/05/23 11:01:51;;;;;;;2.75;2.50;;;;;;;31.64;27.52;98645.56;5089233;28;20186;-56
2022/05/23 11:04:38;;;;;;;2.63;2.53;;;;;;;31.51;27.51;98635.56;5089712;28;20614;-57
2022/05/23 11:07:30;;;;;;;2.53;2.33;;;;;;;31.19;27.67;98638.91;5090620;28;20286;-56
2022/05/23 11:10:08;;;;;;;4.15;2.70;;;;;;;31.23;27.90;98640.19;5093336;28;20199;-57
2022/05/23 11:12:44;;;;;;;2.83;2.63;;;;;;;31.44;27.54;98631.22;5093219;28;20251;-57
2022/05/23 11:15:30;;;;;;;2.78;2.58;;;;;;;31.71;27.37;98625.81;5093085;28;20199;-57
2022/05/23 11:18:06;;;;;;;4.32;2.50;;;;;;;31.80;28.22;98623.78;5093052;28;20206;-56
2022/05/23 11:20:36;;;;;;;5.68;2.40;;;;;;;31.48;27.11;98611.03;5093196;28;20199;-57
2022/05/23 11:23:11;;;;;;;3.50;2.40;;;;;;;31.29;27.46;98604.53;5093135;28;20217;-57
2022/05/23 11:25:44;;;;;;;2.50;2.30;;;;;;;31.07;27.40;98624.38;5092846;28;20187;-56
2022/05/23 11:34:10;;;;;;;51.13;45.75;;;;;;;31.01;28.47;98604.56;5092980;28;20789;-57
2022/05/23 11:39:47;;;;;;;2.20;1.98;;;;;;;31.21;28.43;98604.69;5082171;28;20213;-57
2022/05/23 11:42:16;;;;;;;2.58;2.33;;;;;;;31.27;27.77;98610.06;5092647;28;20206;-57
2022/05/23 11:44:59;;;;;;;2.30;2.10;;;;;;;31.10;28.20;98597.19;5092334;28;20243;-59
2022/05/23 11:47:29;;;;;;;5.72;2.45;;;;;;;30.94;28.09;98577.69;5092466;28;20201;-59
2022/05/23 11:50:16;;;;;;;5.95;2.30;;;;;;;30.78;27.81;98591.41;5092649;28;20697;-61
2022/05/23 11:52:49;;;;;;;4.18;2.50;;;;;;;30.58;29.65;98585.09;5092602;28;20301;-66
2022/05/23 11:56:03;;;;;;;2.63;2.33;;;;;;;30.49;29.17;98594.22;5092569;28;20280;-64
2022/05/23 11:58:44;;;;;;;6.72;2.45;;;;;;;30.43;30.01;98584.31;5010373;28;20653;-59
2022/05/23 12:01:25;;;;;;;4.72;2.25;;;;;;;30.44;29.20;98585.97;5010085;28;20201;-59
2022/05/23 12:04:15;;;;;;;4.40;2.90;;;;;;;30.52;29.21;98556.34;5061930;28;20199;-59
2022/05/23 12:06:42;;;;;;;4.18;2.25;;;;;;;30.75;28.55;98566.84;5092298;28;20556;-58
2022/05/23 12:09:27;;;;;;;2.28;2.08;;;;;;;30.74;27.96;98582.09;5091991;28;20192;-59
2022/05/23 12:12:47;;;;;;;2.78;2.40;;;;;;;30.63;28.10;98579.97;5091910;28;20223;-58
2022/05/23 12:15:51;;;;;;;5.20;2.10;;;;;;;30.18;28.12;98582.03;5092112;28;20203;-58
2022/05/23 12:18:37;;;;;;;4.85;2.30;;;;;;;30.10;29.71;98576.81;5028273;28;20232;-59
2022/05/23 12:21:08;;;;;;;6.50;2.35;;;;;;;30.35;30.22;98581.78;5029704;28;20335;-58
2022/05/23 12:23:39;;;;;;;4.28;2.05;;;;;;;30.41;29.39;98578.31;5068695;28;20199;-58
2022/05/23 12:26:19;;;;;;;7.90;2.40;;;;;;;30.45;28.09;98582.28;5089599;28;20187;-58
2022/05/23 12:28:48;;;;;;;4.00;1.75;;;;;;;30.26;27.76;98579.22;5086759;28;20655;-59
2022/05/23 12:31:17;;;;;;;5.68;2.17;;;;;;;30.03;28.71;98572.38;5089534;28;20187;-58
2022/05/23 12:33:51;;;;;;;3.67;2.05;;;;;;;29.90;28.49;98583.78;5087060;28;20199;-59
2022/05/23 12:36:26;;;;;;;2.85;2.13;;;;;;;29.77;28.55;98576.44;5090545;28;20674;-57
2022/05/23 12:39:31;;;;;;;2.35;2.13;;;;;;;29.71;28.77;98569.16;5090593;28;20206;-57
2022/05/23 12:42:19;;;;;;;2.13;2.03;;;;;;;29.61;29.67;98569.47;5089614;28;20193;-58
2022/05/23 12:45:22;;;;;;;7.10;6.53;;;;;;;29.62;28.28;98578.31;5087639;28;20232;-59
2022/05/23 12:48:31;;;;;;;2.60;2.00;;;;;;;29.66;30.00;98574.25;5090262;28;20692;-58